D/T METAR WX W/DIR W/SPE G/SPE TEMP DEWP
7/12/19 22:56 EGUN 072256Z 22012G20KT 9999 OVC014 10/07 A2964 RMK AO2 SLP041 T00990071 . SW (220°) 13.8mph 23.0mph 9.9°C 7.1°C
7/12/19 21:56 EGUN 072156Z AUTO 22014G22KT 9999 OVC015 09/09 A2968 RMK AO2 SLP054 T00940094 . SW (220°) 16.1mph 25.3mph 9.4°C 9.4°C
7/12/19 21:11 EGUN 072111Z AUTO 21016KT 9999 OVC016 09/09 A2970 RMK AO2 PRESFR SLPNO $ SSW (210°) 18.4mph 9°C 9°C
7/12/19 20:26 EGUN 072026Z AUTO 21014G23KT 9999 OVC019 09/09 A2974 RMK AO2 SLP074 $ SSW (210°) 16.1mph 26.5mph 9°C 9°C
7/12/19 19:56 EGUN 071956Z AUTO 21013G19KT 9999 OVC021 09/08 A2976 RMK AO2 CIG 020 RWY29 SLP081 T00890083 . SSW (210°) 15.0mph 21.9mph 8.9°C 8.3°C
7/12/19 19:16 EGUN 071916Z AUTO 22012KT 9999 BKN021 09/08 A2979 RMK AO2 SLP091 $ SW (220°) 13.8mph 9°C 8°C
7/12/19 18:01 EGUN 071801Z AUTO 22014KT 9999 SCT049 09/08 A2981 RMK AO2 SLP098 $ SW (220°) 16.1mph 9°C 8°C
7/12/19 17:21 EGUN 071721Z AUTO 23010KT 9999 BKN048 BKN055 OVC070 09/08 A2983 RMK AO2 SLP105 $ SW (230°) 11.5mph 9°C 8°C
7/12/19 15:56 EGUN 071556Z AUTO 22010KT 9999 OVC075 09/08 A2984 RMK AO2 SLP108 T00920081 . SW (220°) 11.5mph 9.2°C 8.1°C
7/12/19 14:56 EGUN 071456Z AUTO 23012KT 9999 FEW030 BKN080 10/08 A2984 RMK AO2 SLP108 T00970078 57015 . SW (230°) 13.8mph 9.7°C 7.8°C
7/12/19 14:51 EGUN 071451Z AUTO 23012KT 9999 SCT031 BKN080 10/08 A2984 RMK AO2 SLP108 $ SW (230°) 13.8mph 10°C 8°C
7/12/19 14:11 EGUN 071411Z AUTO 22009KT 9999 SCT034 10/08 A2985 RMK AO2 SLP111 $ SW (220°) 10.4mph 10°C 8°C
7/12/19 13:06 EGUN 071306Z AUTO 24009KT 9999 BKN034 10/08 A2987 RMK AO2 SLP118 $ WSW (240°) 10.4mph 10°C 8°C
7/12/19 11:56 EGUN 071156Z AUTO 24009KT 9999 OVC039 10/09 A2988 RMK AO2 SLP122 7//// T00950087 10095 20076 . WSW (240°) 10.4mph 9.5°C 8.7°C
7/12/19 10:56 EGUN 071056Z AUTO 24008KT 9999 OVC041 09/09 A2989 RMK AO2 SLP125 T00910091 . WSW (240°) 9.2mph 9.1°C 9.1°C
7/12/19 09:56 EGUN 070956Z AUTO M M M M M M RMK AO2 SLPNO RVRNO VISNO RWY11 . N (0°) 0°C 0°C
7/12/19 08:56 EGUN 070856Z 25014KT 9999 OVC041 08/06 A2988 RMK SLPNO RVRNO . WSW (250°) 16.1mph 8°C 6°C
7/12/19 07:56 EGUN 070756Z AUTO 24007KT 9999 OVC043 08/08 A2987 RMK AO2 SLP118 T00780078 . WSW (240°) 8.1mph 7.8°C 7.8°C
7/12/19 06:56 EGUN 070656Z AUTO 23011KT 9999 OVC037 08/08 A2986 RMK AO2 SLP115 T00770077 . SW (230°) 12.7mph 7.7°C 7.7°C
7/12/19 05:56 EGUN 070556Z AUTO 25009KT 9999 FEW029 OVC039 08/08 A2984 RMK AO2 SLP108 T00770077 10079 20066 52022 . WSW (250°) 10.4mph 7.7°C 7.7°C
7/12/19 05:01 EGUN 070501Z AUTO 25012KT 9999 OVC041 08/08 A2980 RMK AO2 SLP095 $ WSW (250°) 13.8mph 8°C 8°C
7/12/19 03:56 EGUN 070356Z AUTO 25010KT 9999 BKN043 07/07 A2979 RMK AO2 SLP091 T00720072 . WSW (250°) 11.5mph 7.2°C 7.2°C
7/12/19 03:41 EGUN 070341Z AUTO 24010KT 9999 BKN043 07/07 A2978 RMK AO2 SLP088 $ WSW (240°) 11.5mph 7°C 7°C
7/12/19 03:01 EGUN 070301Z AUTO 25011KT 9999 SCT042 08/08 A2978 RMK AO2 SLPNO $ WSW (250°) 12.7mph 8°C 8°C
7/12/19 01:56 EGUN 070156Z AUTO 25012KT 9999 OVC039 08/08 A2976 RMK AO2 SLP081 T00770077 . WSW (250°) 13.8mph 7.7°C 7.7°C
7/12/19 01:41 EGUN 070141Z AUTO 25011KT 9999 BKN040 08/08 A2976 RMK AO2 SLP081 $ WSW (250°) 12.7mph 8°C 8°C
7/12/19 00:56 EGUN 070056Z AUTO 25009KT 9999 CLR 07/07 A2973 RMK AO2 SLP071 T00680068 . WSW (250°) 10.4mph 6.8°C 6.8°C
6/12/19 23:56 EGUN 062356Z AUTO 25011KT 9999 SCT038 08/08 A2972 RMK AO2 SLP067 60000 T00750075 10093 20073 401320073 52022 . WSW (250°) 12.7mph 7.5°C 7.5°C
6/12/19 23:46 EGUN 062346Z AUTO 26012KT 9999 BKN037 08/08 A2971 RMK AO2 SLP064 $ W (260°) 13.8mph 8°C 8°C
6/12/19 22:56 EGUN 062256Z AUTO 26011KT 9999 M 07/07 A2970 RMK AO2 SLP061 T00740074 . W (260°) 12.7mph 7.4°C 7.4°C
6/12/19 21:56 EGUN 062156Z AUTO 27013KT 9999 CLR 08/08 A2967 RMK AO2 SLP050 T00780078 . W (270°) 15.0mph 7.8°C 7.8°C
6/12/19 20:56 EGUN 062056Z AUTO 28012KT 9999 CLR 08/08 A2965 RMK AO2 SLP044 60000 T00840084 52037 . W (280°) 13.8mph 8.4°C 8.4°C
6/12/19 19:56 EGUN 061956Z AUTO 27013KT 9999 FEW025 FEW038 SCT047 08/08 A2962 RMK AO2 SLP034 T00830083 . W (270°) 15.0mph 8.3°C 8.3°C
6/12/19 18:56 EGUN 061856Z AUTO 27015KT 9999 SCT024 BKN043 BKN050 BKN085 09/09 A2958 RMK AO2 RAB1757E13 SLP020 P0000 T00900090 . W (270°) 17.3mph 9°C 9°C
6/12/19 18:38 EGUN 061838Z AUTO 27013G20KT 9999 FEW025 SCT040 SCT085 09/09 A2957 RMK AO2 RAB1757E13 SLP017 $ W (270°) 15.0mph 23.0mph 9°C 9°C
6/12/19 18:13 EGUN 061813Z AUTO 26015G21KT 9999 FEW028 BKN040 OVC050 09/09 A2955 RMK AO2 RAB1757E13 SLP010 $ W (260°) 17.3mph 24.2mph 9°C 9°C
6/12/19 16:56 EGUN 061656Z AUTO 27012KT 9999 -RA SCT009 BKN038 OVC055 10/10 A2951 RMK AO2 PK WND 23037/26 RAB1558E16RAB20 SLP996 P0005 T00950095 . -RA W (270°) 13.8mph 9.5°C 9.5°C
6/12/19 16:46 EGUN 061646Z AUTO 28013KT 9999 -RA BKN009 BKN015 BKN021 OVC034 10/10 A2951 RMK AO2 RAB1558E16RAB20 CIG 009V022 SLP996 $ -RA W (280°) 15.0mph 10°C 10°C
6/12/19 16:20 EGUN 061620Z AUTO 23017G22KT 9999 -RA BKN022 BKN032 OVC048 11/11 A2947 RMK AO2 RAB1558E16RAB20 CIG 022V032 SLP983 $ -RA SW (230°) 19.6mph 25.3mph 11°C 11°C
6/12/19 14:56 EGUN 061456Z AUTO 24011G19KT 9999 FEW024 BKN030 BKN036 OVC042 12/12 A2949 RMK AO2 SLP989 60000 T01230118 56017 . WSW (240°) 12.7mph 21.9mph 12.3°C 11.8°C
6/12/19 14:46 EGUN 061446Z AUTO 24014G20KT 9999 BKN027 BKN032 OVC042 12/12 A2949 RMK AO2 CIG 027V042 SLP989 $ WSW (240°) 16.1mph 23.0mph 12°C 12°C
6/12/19 14:21 EGUN 061421Z AUTO 24016G24KT 9999 SCT024 OVC042 13/12 A2948 RMK AO2 SLP986 $ WSW (240°) 18.4mph 27.6mph 13°C 12°C
6/12/19 13:31 EGUN 061331Z AUTO 24015G22KT 9999 BKN023 OVC050 13/13 A2949 RMK AO2 CIG 023V050 SLP989 $ WSW (240°) 17.3mph 25.3mph 13°C 13°C
6/12/19 13:21 EGUN 061321Z AUTO 24017G23KT 9999 FEW024 OVC050 13/13 A2949 RMK AO2 SLP989 $ WSW (240°) 19.6mph 26.5mph 13°C 13°C
6/12/19 12:50 EGUN 061250Z AUTO 24014G24KT 9999 SCT019 13/13 A2951 RMK AO2 RAE05 SLP996 $ WSW (240°) 16.1mph 27.6mph 13°C 13°C
6/12/19 12:05 EGUN 061205Z AUTO 24016G23KT 9999 BKN017 OVC027 12/12 A2953 RMK AO2 RAE05 SLP003 $ WSW (240°) 18.4mph 26.5mph 12°C 12°C
6/12/19 11:41 EGUN 061141Z AUTO 24020G26KT 9999 OVC015 13/13 A2954 RMK AO2 SLP006 $ WSW (240°) 23.0mph 29.9mph 13°C 13°C
6/12/19 11:16 EGUN 061116Z AUTO 24012KT 9999 OVC017 13/13 A2956 RMK AO2 SLP013 $ WSW (240°) 13.8mph 13°C 13°C